createdAt,value
2023-05-01T00:01:43.927Z,88.29
2023-05-01T00:04:12.284Z,88.78
2023-05-01T00:06:40.059Z,88.42
2023-05-01T00:09:07.366Z,88.00
2023-05-01T00:11:36.295Z,87.57
2023-05-01T00:14:04.180Z,87.55
2023-05-01T00:16:31.578Z,87.97
2023-05-01T00:18:59.283Z,87.87
2023-05-01T00:21:28.434Z,87.61
2023-05-01T00:23:55.944Z,87.29
2023-05-01T00:26:26.478Z,87.20
2023-05-01T00:28:54.366Z,87.02
2023-05-01T00:31:21.599Z,86.81
2023-05-01T00:33:49.293Z,86.47
2023-05-01T00:36:16.507Z,87.07
2023-05-01T00:38:43.727Z,87.76
2023-05-01T00:41:11.288Z,87.72
2023-05-01T00:43:38.584Z,87.26
2023-05-01T00:46:06.388Z,88.35
2023-05-01T00:48:34.226Z,86.78
2023-05-01T00:51:03.689Z,87.05
2023-05-01T00:53:31.400Z,87.67
2023-05-01T00:55:59.644Z,87.18
2023-05-01T00:58:27.510Z,88.01
2023-05-01T01:00:55.962Z,88.07
2023-05-01T01:03:23.669Z,88.89
2023-05-01T01:06:05.084Z,88.61
2023-05-01T01:09:07.930Z,89.04
2023-05-01T01:12:01.339Z,89.40
2023-05-01T01:14:33.805Z,88.62
2023-05-01T01:17:24.864Z,88.78
2023-05-01T01:20:06.164Z,89.37
2023-05-01T01:22:36.074Z,88.15
2023-05-01T01:25:34.885Z,87.80
2023-05-01T01:28:34.786Z,89.64
2023-05-01T01:31:28.111Z,89.29
2023-05-01T01:34:10.249Z,90.80
2023-05-01T01:36:42.713Z,91.87
2023-05-01T01:39:35.843Z,90.45
2023-05-01T01:42:09.437Z,89.69
2023-05-01T01:44:51.154Z,89.50
2023-05-01T01:47:23.397Z,88.81
2023-05-01T01:49:54.520Z,88.93
2023-05-01T01:52:24.115Z,89.19
2023-05-01T01:54:58.752Z,90.36
2023-05-01T01:57:28.630Z,89.08
2023-05-01T01:59:59.296Z,89.01
2023-05-01T02:02:28.671Z,89.64
2023-05-01T02:04:57.494Z,90.71
2023-05-01T02:07:27.112Z,90.13
2023-05-01T02:09:56.519Z,91.22
2023-05-01T02:12:27.054Z,91.30
2023-05-01T02:14:56.361Z,91.55
2023-05-01T02:17:25.127Z,91.36
2023-05-01T02:19:55.455Z,92.56
2023-05-01T02:22:26.116Z,93.16
2023-05-01T02:24:56.113Z,92.46
2023-05-01T02:27:36.316Z,92.29
2023-05-01T02:30:05.738Z,92.02
2023-05-01T02:32:33.876Z,91.71
2023-05-01T02:35:01.836Z,94.20
2023-05-01T02:37:31.278Z,93.36
2023-05-01T02:39:59.438Z,90.21
2023-05-01T02:42:29.316Z,89.33
2023-05-01T02:45:06.019Z,90.85
2023-05-01T02:47:38.626Z,90.85
2023-05-01T02:50:08.175Z,90.16
2023-05-01T02:52:37.632Z,93.00
2023-05-01T02:55:08.685Z,93.48
2023-05-01T02:57:36.178Z,94.05
2023-05-01T03:00:04.555Z,93.11
2023-05-01T03:02:33.784Z,91.99
2023-05-01T03:05:01.135Z,94.57
2023-05-01T03:07:35.255Z,95.77
2023-05-01T03:10:08.010Z,95.95
2023-05-01T03:12:35.446Z,96.60
2023-05-01T03:15:03.698Z,96.03
2023-05-01T03:17:31.643Z,97.48
2023-05-01T03:19:59.013Z,97.92
2023-05-01T03:22:29.788Z,97.56
2023-05-01T03:24:57.528Z,97.34
2023-05-01T03:27:25.135Z,96.64
2023-05-01T03:29:54.857Z,94.99
2023-05-01T03:32:26.295Z,95.48
2023-05-01T03:34:54.806Z,95.22
2023-05-01T03:37:22.310Z,95.31
2023-05-01T03:39:51.997Z,95.22
2023-05-01T03:42:20.656Z,94.48
2023-05-01T03:44:54.653Z,93.88
2023-05-01T03:47:31.890Z,94.66
2023-05-01T03:49:59.744Z,95.29
2023-05-01T03:52:37.880Z,95.91
2023-05-01T03:55:06.431Z,93.05
2023-05-01T03:57:35.756Z,93.20
2023-05-01T04:00:05.571Z,92.29
2023-05-01T04:02:42.889Z,93.92
2023-05-01T04:05:12.501Z,95.06
2023-05-01T04:07:45.479Z,94.26
2023-05-01T04:10:13.755Z,93.84
2023-05-01T04:12:43.868Z,92.54
2023-05-01T04:15:12.732Z,91.72
2023-05-01T04:17:44.019Z,92.08
2023-05-01T04:20:11.828Z,93.03
2023-05-01T04:22:39.320Z,92.26
2023-05-01T04:25:09.098Z,92.77
2023-05-01T04:27:36.422Z,96.20
2023-05-01T04:30:06.394Z,96.25
2023-05-01T04:33:11.206Z,96.65
2023-05-01T04:36:04.583Z,98.97
2023-05-01T04:38:33.217Z,96.63
2023-05-01T04:41:01.007Z,98.27
2023-05-01T04:43:54.107Z,99.90
2023-05-01T04:46:24.240Z,97.26
2023-05-01T04:49:01.238Z,95.29
2023-05-01T04:51:29.652Z,95.44
2023-05-01T04:54:00.226Z,95.95
2023-05-01T04:56:41.739Z,95.82
2023-05-01T04:59:09.673Z,95.84
2023-05-01T05:01:37.705Z,95.35
2023-05-01T05:04:11.524Z,96.17
2023-05-01T05:06:46.251Z,97.21
2023-05-01T05:09:20.162Z,96.85
2023-05-01T05:14:39.576Z,97.81
2023-05-01T05:17:07.332Z,97.34
2023-05-01T05:19:42.938Z,98.24
2023-05-01T05:22:12.814Z,97.80
2023-05-01T05:24:42.692Z,97.77
2023-05-01T05:27:10.033Z,100.00
2023-05-01T05:29:37.705Z,100.00
2023-05-01T05:32:06.407Z,98.47
2023-05-01T05:34:33.904Z,97.61
2023-05-01T05:37:01.972Z,97.17
2023-05-01T05:39:29.726Z,98.10
2023-05-01T05:41:57.332Z,99.05
2023-05-01T05:44:30.149Z,99.94
2023-05-01T05:46:57.833Z,99.10
2023-05-01T05:49:27.185Z,99.46
2023-05-01T05:51:54.659Z,100.00
2023-05-01T05:54:22.820Z,100.00
2023-05-01T05:56:58.662Z,100.00
2023-05-01T05:59:29.735Z,100.00
2023-05-01T06:02:02.185Z,99.82
2023-05-01T06:04:30.412Z,98.59
2023-05-01T06:06:58.294Z,99.15
2023-05-01T06:09:44.169Z,96.63
2023-05-01T06:12:12.946Z,100.00
2023-05-01T06:14:42.223Z,100.00
2023-05-01T06:17:09.783Z,97.36
2023-05-01T06:20:06.925Z,99.71
2023-05-01T06:22:47.388Z,98.85
2023-05-01T06:25:25.318Z,100.00
2023-05-01T06:27:53.044Z,98.53
2023-05-01T06:30:22.109Z,95.83
2023-05-01T06:32:50.454Z,95.33
2023-05-01T06:35:18.613Z,95.18
2023-05-01T06:37:56.309Z,92.99
2023-05-01T06:40:40.961Z,92.36
2023-05-01T06:43:09.007Z,91.08
2023-05-01T06:45:55.053Z,87.20
2023-05-01T06:48:28.651Z,83.17
2023-05-01T06:50:56.992Z,83.29
2023-05-01T06:53:24.993Z,83.85
2023-05-01T06:55:52.667Z,83.50
2023-05-01T06:58:23.960Z,84.11
2023-05-01T07:00:56.548Z,81.52
2023-05-01T07:03:37.281Z,79.18
2023-05-01T07:06:08.428Z,76.80
2023-05-01T07:08:36.315Z,72.92
2023-05-01T07:11:04.069Z,73.69
2023-05-01T07:13:33.680Z,74.72
2023-05-01T07:16:02.071Z,72.45
2023-05-01T07:18:29.932Z,66.66
2023-05-01T07:20:58.371Z,70.77
2023-05-01T07:23:27.287Z,67.50
2023-05-01T07:25:55.007Z,68.39
2023-05-01T07:28:23.482Z,66.34
2023-05-01T07:30:52.309Z,67.87
2023-05-01T07:33:20.084Z,66.26
2023-05-01T07:35:48.364Z,66.76
2023-05-01T07:38:16.772Z,65.34
2023-05-01T07:40:44.454Z,65.71
2023-05-01T07:43:24.331Z,65.10
2023-05-01T07:45:59.083Z,65.37
2023-05-01T07:48:28.767Z,66.23
2023-05-01T07:50:57.278Z,68.53
2023-05-01T07:53:24.645Z,67.80
2023-05-01T07:56:23.429Z,68.98
2023-05-01T07:58:56.012Z,68.52
2023-05-01T08:01:24.568Z,67.65
2023-05-01T08:03:52.730Z,66.64
2023-05-01T08:06:24.536Z,66.05
2023-05-01T08:08:52.780Z,63.70
2023-05-01T08:11:25.548Z,66.56
2023-05-01T08:13:59.797Z,66.92
2023-05-01T08:16:28.224Z,65.67
2023-05-01T08:18:56.648Z,66.22
2023-05-01T08:21:25.935Z,65.62
2023-05-01T08:23:59.307Z,65.02
2023-05-01T08:26:27.456Z,63.02
2023-05-01T08:29:20.072Z,65.26
2023-05-01T08:31:57.151Z,63.76
2023-05-01T08:34:25.443Z,61.91
2023-05-01T08:36:57.485Z,60.39
2023-05-01T08:39:26.002Z,60.97
2023-05-01T08:41:58.683Z,58.10
2023-05-01T08:44:29.292Z,58.84
2023-05-01T08:47:16.041Z,55.83
2023-05-01T08:49:48.211Z,55.54
2023-05-01T08:52:28.784Z,52.27
2023-05-01T08:54:58.197Z,52.39
2023-05-01T08:57:31.015Z,52.94
2023-05-01T08:59:59.367Z,52.74
2023-05-01T09:02:30.225Z,50.31
2023-05-01T09:05:01.267Z,51.49
2023-05-01T09:07:30.134Z,49.49
2023-05-01T09:10:04.697Z,49.69
2023-05-01T09:12:35.933Z,49.75
2023-05-01T09:15:07.546Z,51.33
2023-05-01T09:17:37.886Z,48.82
2023-05-01T09:20:10.187Z,47.10
2023-05-01T09:22:43.956Z,44.81
2023-05-01T09:28:18.069Z,42.59
2023-05-01T09:30:47.902Z,42.46
2023-05-01T09:33:18.994Z,42.74
2023-05-01T09:36:12.542Z,42.84
2023-05-01T09:39:09.225Z,44.74
2023-05-01T09:41:53.301Z,42.60
2023-05-01T09:44:21.529Z,41.65
2023-05-01T09:46:49.816Z,40.83
2023-05-01T09:49:20.782Z,42.59
2023-05-01T09:51:49.875Z,42.88
2023-05-01T09:54:20.076Z,42.17
2023-05-01T09:56:52.589Z,43.34
2023-05-01T09:59:21.313Z,42.39
2023-05-01T10:01:51.344Z,43.16
2023-05-01T10:04:30.785Z,42.40
2023-05-01T10:06:58.650Z,42.20
2023-05-01T10:09:32.893Z,41.63
2023-05-01T10:12:00.739Z,41.05
2023-05-01T10:14:29.970Z,42.89
2023-05-01T10:16:58.243Z,41.29
2023-05-01T10:19:26.196Z,41.02
2023-05-01T10:21:54.022Z,43.20
2023-05-01T10:24:21.820Z,42.55
2023-05-01T10:26:50.204Z,42.41
2023-05-01T10:29:21.132Z,44.76
2023-05-01T10:31:48.609Z,45.58
2023-05-01T10:34:20.286Z,46.92
2023-05-01T10:36:57.860Z,47.11
2023-05-01T10:39:51.640Z,42.49
2023-05-01T10:42:23.494Z,43.26
2023-05-01T10:44:51.077Z,39.93
2023-05-01T10:47:25.080Z,38.38
2023-05-01T10:50:22.081Z,41.05
2023-05-01T10:53:11.969Z,45.79
2023-05-01T10:55:43.624Z,46.03
2023-05-01T10:58:37.569Z,47.82
2023-05-01T11:01:36.972Z,46.65
2023-05-01T11:04:24.102Z,45.41
2023-05-01T11:07:08.518Z,45.73
2023-05-01T11:09:39.890Z,48.25
2023-05-01T11:12:08.458Z,46.68
2023-05-01T11:14:54.627Z,46.98
2023-05-01T11:17:49.943Z,45.28
2023-05-01T11:20:27.409Z,46.40
2023-05-01T11:23:00.971Z,45.91
2023-05-01T11:25:35.071Z,46.21
2023-05-01T11:28:07.126Z,46.16
2023-05-01T11:30:53.256Z,46.96
2023-05-01T11:33:59.496Z,47.61
2023-05-01T11:36:52.396Z,49.17
2023-05-01T11:39:25.755Z,50.82
2023-05-01T11:42:10.083Z,48.91
2023-05-01T11:44:38.013Z,47.66
2023-05-01T11:47:07.575Z,48.84
2023-05-01T11:49:36.251Z,47.53
2023-05-01T11:52:04.445Z,47.75
2023-05-01T11:54:31.846Z,46.31
2023-05-01T11:57:01.182Z,46.20
2023-05-01T11:59:29.395Z,45.38
2023-05-01T12:01:56.804Z,45.67
2023-05-01T12:04:31.586Z,44.87
2023-05-01T12:06:59.663Z,44.66
2023-05-01T12:09:28.483Z,45.48
2023-05-01T12:11:58.506Z,46.41
2023-05-01T12:14:26.060Z,45.95
2023-05-01T12:16:54.422Z,45.45
2023-05-01T12:19:23.969Z,45.95
2023-05-01T12:22:07.066Z,46.52
2023-05-01T12:24:34.860Z,45.85
2023-05-01T12:27:03.747Z,45.66
2023-05-01T12:29:41.767Z,45.21
2023-05-01T12:32:10.897Z,45.19
2023-05-01T12:34:39.854Z,44.61
2023-05-01T12:37:07.547Z,43.66
2023-05-01T12:39:42.559Z,43.22
2023-05-01T12:42:14.892Z,44.17
2023-05-01T12:44:43.357Z,45.54
2023-05-01T12:47:13.194Z,43.67
2023-05-01T12:49:40.806Z,43.99
2023-05-01T12:52:09.434Z,42.49
2023-05-01T12:54:39.082Z,42.30
2023-05-01T12:57:08.525Z,40.87
2023-05-01T12:59:37.825Z,40.03
2023-05-01T13:02:13.522Z,37.36
2023-05-01T13:04:43.317Z,39.12
2023-05-01T13:07:16.671Z,40.13
2023-05-01T13:10:00.540Z,38.87
2023-05-01T13:12:28.828Z,37.76
2023-05-01T13:14:57.094Z,37.88
2023-05-01T13:17:32.193Z,38.07
2023-05-01T13:20:02.519Z,38.71
2023-05-01T13:22:34.929Z,40.77
2023-05-01T13:25:04.872Z,42.65
2023-05-01T13:27:32.771Z,43.08
2023-05-01T13:30:00.867Z,43.33
2023-05-01T13:32:28.928Z,43.51
2023-05-01T13:35:01.092Z,44.28
2023-05-01T13:37:30.764Z,44.34
2023-05-01T13:40:01.091Z,43.96
2023-05-01T13:42:29.520Z,44.49
2023-05-01T13:44:58.318Z,44.84
2023-05-01T13:47:27.618Z,45.82
2023-05-01T13:49:55.886Z,44.30
2023-05-01T13:52:23.473Z,44.75
2023-05-01T13:54:55.806Z,43.33
2023-05-01T13:57:23.773Z,43.12
2023-05-01T13:59:51.872Z,42.85
2023-05-01T14:02:38.597Z,40.00
2023-05-01T14:05:09.751Z,41.09
2023-05-01T14:08:04.490Z,40.84
2023-05-01T14:10:32.222Z,42.32
2023-05-01T14:12:59.980Z,42.92
2023-05-01T14:15:28.984Z,42.28
2023-05-01T14:17:56.876Z,42.12
2023-05-01T14:20:27.290Z,40.41
2023-05-01T14:22:54.848Z,41.41
2023-05-01T14:25:25.654Z,43.04
2023-05-01T14:27:55.128Z,43.88
2023-05-01T14:30:33.868Z,42.85
2023-05-01T14:33:03.462Z,41.86
2023-05-01T14:35:31.373Z,42.09
2023-05-01T14:38:16.796Z,40.33
2023-05-01T14:40:45.813Z,40.04
2023-05-01T14:43:19.435Z,39.27
2023-05-01T14:45:49.284Z,40.71
2023-05-01T14:48:21.615Z,41.29
2023-05-01T14:50:51.175Z,40.88
2023-05-01T14:53:18.807Z,42.18
2023-05-01T14:55:50.152Z,41.10
2023-05-01T14:58:17.902Z,38.90
2023-05-01T15:00:45.527Z,38.69
2023-05-01T15:03:12.984Z,39.92
2023-05-01T15:05:41.995Z,38.42
2023-05-01T15:08:09.525Z,38.07
2023-05-01T15:10:38.236Z,37.30
2023-05-01T15:13:06.935Z,38.43
2023-05-01T15:15:34.307Z,38.00
2023-05-01T15:18:02.616Z,37.41
2023-05-01T15:20:30.793Z,37.76
2023-05-01T15:22:58.164Z,38.67
2023-05-01T15:25:25.518Z,38.29
2023-05-01T15:27:53.224Z,38.90
2023-05-01T15:30:20.644Z,36.84
2023-05-01T15:32:48.670Z,36.49
2023-05-01T15:35:16.960Z,37.27
2023-05-01T15:37:44.567Z,36.35
2023-05-01T15:40:12.263Z,36.68
2023-05-01T15:42:40.570Z,39.64
2023-05-01T15:45:08.647Z,40.55
2023-05-01T15:47:36.051Z,42.68
2023-05-01T15:50:04.362Z,44.21
2023-05-01T15:52:32.012Z,46.05
2023-05-01T15:54:59.339Z,44.79
2023-05-01T15:57:26.952Z,43.93
2023-05-01T15:59:55.999Z,43.94
2023-05-01T16:02:23.773Z,44.19
2023-05-01T16:04:52.102Z,44.09
2023-05-01T16:07:21.407Z,44.59
2023-05-01T16:09:49.513Z,43.95
2023-05-01T16:12:17.340Z,44.96
2023-05-01T16:14:44.917Z,44.46
2023-05-01T16:17:12.395Z,45.86
2023-05-01T16:19:40.210Z,46.59
2023-05-01T16:22:08.115Z,46.27
2023-05-01T16:24:36.711Z,46.61
2023-05-01T16:27:04.442Z,46.40
2023-05-01T16:29:35.923Z,46.25
2023-05-01T16:32:05.928Z,45.99
2023-05-01T16:34:33.482Z,46.33
2023-05-01T16:37:00.872Z,46.60
2023-05-01T16:39:28.597Z,47.85
2023-05-01T16:41:56.408Z,49.85
2023-05-01T16:44:23.901Z,50.64
2023-05-01T16:46:56.427Z,51.84
2023-05-01T16:49:25.078Z,52.89
2023-05-01T16:51:56.832Z,53.68
2023-05-01T16:54:26.066Z,54.73
2023-05-01T16:56:53.896Z,54.61
2023-05-01T16:59:23.312Z,55.15
2023-05-01T17:01:51.033Z,55.93
2023-05-01T17:04:18.794Z,55.87
2023-05-01T17:06:46.393Z,56.32
2023-05-01T17:09:13.772Z,56.79
2023-05-01T17:11:56.803Z,57.28
2023-05-01T17:14:24.936Z,57.44
2023-05-01T17:16:53.399Z,58.65
2023-05-01T17:19:21.361Z,57.93
2023-05-01T17:21:48.731Z,58.01
2023-05-01T17:24:16.680Z,57.88
2023-05-01T17:26:44.565Z,58.28
2023-05-01T17:29:11.900Z,58.87
2023-05-01T17:31:39.280Z,59.17
2023-05-01T17:34:07.085Z,59.17
2023-05-01T17:36:34.458Z,59.42
2023-05-01T17:39:02.447Z,60.06
2023-05-01T17:41:30.248Z,60.15
2023-05-01T17:43:57.682Z,60.36
2023-05-01T17:46:25.336Z,60.79
2023-05-01T17:48:53.768Z,61.17
2023-05-01T17:51:21.245Z,60.86
2023-05-01T17:53:48.655Z,60.49
2023-05-01T17:56:17.885Z,60.66
2023-05-01T17:58:45.301Z,60.46
2023-05-01T18:01:12.844Z,61.10
2023-05-01T18:03:40.841Z,61.18
2023-05-01T18:06:08.398Z,61.43
2023-05-01T18:08:38.720Z,61.20
2023-05-01T18:11:07.195Z,61.50
2023-05-01T18:13:38.397Z,61.21
2023-05-01T18:16:06.629Z,61.64
2023-05-01T18:18:34.926Z,61.65
2023-05-01T18:21:02.472Z,62.11
2023-05-01T18:23:29.785Z,62.15
2023-05-01T18:25:57.532Z,62.32
2023-05-01T18:28:25.028Z,62.90
2023-05-01T18:30:52.416Z,62.65
2023-05-01T18:33:22.198Z,62.52
2023-05-01T18:35:49.855Z,63.03
2023-05-01T18:38:17.270Z,62.88
2023-05-01T18:40:45.005Z,63.60
2023-05-01T18:43:14.255Z,64.11
2023-05-01T18:45:41.787Z,64.80
2023-05-01T18:48:09.599Z,65.58
2023-05-01T18:50:37.123Z,65.58
2023-05-01T18:53:04.589Z,66.00
2023-05-01T18:55:33.340Z,65.79
2023-05-01T18:58:02.201Z,66.12
2023-05-01T19:00:30.836Z,66.59
2023-05-01T19:02:59.188Z,67.29
2023-05-01T19:05:26.590Z,66.61
2023-05-01T19:07:56.308Z,66.76
2023-05-01T19:10:24.182Z,67.46
2023-05-01T19:12:51.558Z,68.77
2023-05-01T19:15:19.075Z,69.63
2023-05-01T19:17:47.116Z,69.34
2023-05-01T19:20:14.663Z,69.44
2023-05-01T19:22:42.155Z,69.21
2023-05-01T19:25:10.279Z,69.08
2023-05-01T19:27:37.861Z,70.01
2023-05-01T19:30:07.197Z,70.51
2023-05-01T19:32:36.288Z,71.90
2023-05-01T19:35:03.923Z,71.54
2023-05-01T19:37:31.588Z,71.11
2023-05-01T19:39:59.569Z,71.20
2023-05-01T19:42:27.715Z,71.20
2023-05-01T19:44:55.190Z,70.84
2023-05-01T19:47:22.994Z,70.71
2023-05-01T19:49:50.427Z,69.94
2023-05-01T19:52:17.797Z,70.66
2023-05-01T19:54:45.903Z,71.29
2023-05-01T19:57:13.290Z,71.19
2023-05-01T19:59:41.490Z,72.47
2023-05-01T20:02:09.401Z,72.14
2023-05-01T20:04:37.277Z,72.83
2023-05-01T20:07:04.955Z,72.91
2023-05-01T20:09:32.419Z,72.64
2023-05-01T20:12:00.156Z,71.64
2023-05-01T20:14:28.108Z,71.59
2023-05-01T20:16:55.630Z,71.56
2023-05-01T20:19:23.539Z,72.39
2023-05-01T20:21:51.134Z,71.56
2023-05-01T20:24:20.805Z,73.16
2023-05-01T20:26:50.394Z,75.11
2023-05-01T20:29:18.115Z,75.05
2023-05-01T20:31:45.626Z,75.21
2023-05-01T20:34:13.401Z,74.62
2023-05-01T20:36:40.772Z,74.36
2023-05-01T20:39:08.667Z,75.63
2023-05-01T20:41:36.401Z,75.85
2023-05-01T20:44:04.103Z,75.41
2023-05-01T20:46:31.621Z,76.09
2023-05-01T20:48:59.388Z,76.45
2023-05-01T20:51:32.325Z,75.83
2023-05-01T20:54:00.121Z,75.44
2023-05-01T20:56:27.627Z,76.13
2023-05-01T20:58:55.353Z,75.73
2023-05-01T21:01:23.047Z,76.17
2023-05-01T21:03:50.637Z,76.17
2023-05-01T21:06:18.251Z,76.04
2023-05-01T21:08:46.429Z,75.94
2023-05-01T21:11:13.817Z,75.45
2023-05-01T21:13:41.138Z,75.18
2023-05-01T21:16:14.701Z,75.20
2023-05-01T21:18:42.655Z,77.13
2023-05-01T21:21:10.852Z,77.86
2023-05-01T21:23:42.978Z,77.22
2023-05-01T21:26:11.103Z,77.06
2023-05-01T21:28:39.532Z,78.61
2023-05-01T21:31:06.882Z,79.05
2023-05-01T21:33:34.643Z,77.57
2023-05-01T21:36:01.970Z,77.59
2023-05-01T21:38:30.014Z,78.16
2023-05-01T21:40:57.725Z,78.73
2023-05-01T21:43:24.991Z,78.60
2023-05-01T21:45:52.448Z,77.68
2023-05-01T21:48:20.381Z,77.67
2023-05-01T21:50:50.295Z,78.30
2023-05-01T21:53:17.736Z,78.83
2023-05-01T21:55:49.254Z,78.76
2023-05-01T21:58:16.702Z,78.72
2023-05-01T22:00:46.146Z,79.39
2023-05-01T22:03:17.364Z,79.02
2023-05-01T22:05:44.748Z,78.90
2023-05-01T22:08:12.160Z,78.57
2023-05-01T22:10:41.230Z,79.68
2023-05-01T22:13:08.582Z,79.59
2023-05-01T22:15:35.872Z,79.19
2023-05-01T22:18:03.720Z,79.08
2023-05-01T22:20:32.140Z,79.15
2023-05-01T22:22:59.344Z,78.74
2023-05-01T22:25:26.997Z,78.49
2023-05-01T22:27:54.309Z,79.31
2023-05-01T22:30:21.582Z,80.14
2023-05-01T22:32:49.214Z,79.85
2023-05-01T22:35:16.525Z,79.87
2023-05-01T22:37:43.807Z,79.47
2023-05-01T22:40:11.940Z,79.28
2023-05-01T22:42:39.304Z,78.91
2023-05-01T22:45:07.299Z,79.03
2023-05-01T22:47:34.965Z,78.66
2023-05-01T22:50:02.648Z,78.96
2023-05-01T22:52:30.193Z,78.71
2023-05-01T22:54:57.938Z,79.47
2023-05-01T22:57:25.348Z,79.04
2023-05-01T22:59:52.764Z,79.32
2023-05-01T23:02:20.880Z,79.09
2023-05-01T23:04:48.579Z,79.35
2023-05-01T23:07:15.920Z,79.44
2023-05-01T23:09:43.686Z,80.33
2023-05-01T23:12:19.341Z,80.53
2023-05-01T23:14:47.188Z,80.50
2023-05-01T23:17:15.156Z,79.82
2023-05-01T23:19:43.786Z,80.03
2023-05-01T23:22:13.270Z,80.77
2023-05-01T23:24:45.267Z,80.58
2023-05-01T23:27:14.981Z,80.48
2023-05-01T23:29:44.606Z,80.50
2023-05-01T23:32:25.883Z,80.28
2023-05-01T23:35:02.867Z,80.90
2023-05-01T23:37:30.258Z,80.29
2023-05-01T23:39:59.896Z,79.91
2023-05-01T23:42:28.405Z,80.39
2023-05-01T23:44:56.664Z,80.78
2023-05-01T23:47:24.399Z,81.91
2023-05-01T23:49:51.991Z,81.46
2023-05-01T23:52:19.230Z,81.32
2023-05-01T23:54:46.964Z,82.72
2023-05-01T23:57:14.174Z,81.77
2023-05-01T23:59:41.626Z,81.91
